Impacts METAR Board
IDs:

KELA - Eagle Lake Arpt, TX, US

Updated at: 0300 UTC 15 Aug 2020
Potential Impact None Slight Moderate High
Time 14/15Z 14/16Z 14/17Z 14/18Z 14/19Z 14/20Z 14/21Z 14/22Z 14/23Z 15/00Z 15/01Z 15/02Z 15/03Z
Temp88 90 93 95 97 98 99 100 99 94 91 87 84
Dewpt79 78 77 74 74 74 73 72 72 76 76 75 77
Altim29.97 29.97 29.96 29.94 29.92 29.91 29.88 29.87 29.85 29.86 29.86 29.89 29.90
VIS10 10 10 10 10 10 10 10 10 10 10 10 10
CIG13 -- -- -- -- -- -- -- -- -- -- -- --
CoverOVCSCTCLRCLRCLRSCTCLRCLRCLRCLRCLRCLRCLR
FltCatMVFRVFRVFRVFRVFRVFRVFRVFRVFRVFRVFRVFRVFR
WX--------------------------
WDir240210220190220150130130160130180190180
WSpd10 7 6 6 5 7 13 7 6 12 10 8 8
WGst14 10 -- -- -- 17 17 -- -- 16 -- -- --
Raw hourly METARs
KELA 141455Z AUTO 24010G14KT 10SM OVC013 31/26 A2997 RMK AO2 T03090262
KELA 141555Z AUTO 21007G10KT 160V220 10SM SCT021 32/25 A2997 RMK AO2 T03210253
KELA 141655Z AUTO 22006KT 10SM CLR 34/25 A2996 RMK AO2 T03400250
KELA 141755Z AUTO 19006KT 10SM CLR 35/24 A2994 RMK AO2 T03490236 10351 20262
KELA 141855Z AUTO 22005KT 10SM CLR 36/23 A2992 RMK AO2 T03620234
KELA 141955Z AUTO 15007G17KT 10SM SCT050 37/23 A2991 RMK AO2 T03680234
KELA 142055Z AUTO 13013G17KT 10SM CLR 37/23 A2988 RMK AO2 T03710228
KELA 142155Z AUTO 13007KT 10SM CLR 38/22 A2987 RMK AO2 T03750222
KELA 142255Z AUTO 16006KT 130V190 10SM CLR 37/22 A2985 RMK AO2 T03700223
KELA 142355Z AUTO 13012G16KT 10SM CLR 35/25 A2986 RMK AO2 T03460245 10379 20346
KELA 150055Z AUTO 18010KT 10SM CLR 33/25 A2986 RMK AO2 T03260245
KELA 150155Z AUTO 19008KT 10SM CLR 31/24 A2989 RMK AO2 T03050240
KELA 150255Z AUTO 18008KT 10SM CLR 29/25 A2990 RMK AO2 T02900248